sensor_id;sensor_type;location;lat;lon;timestamp;P1;P2;P0
55549;PMS7003;41397;49.972;18.944;2024-02-26T00:01:02;50;39;25
55549;PMS7003;41397;49.972;18.944;2024-02-26T00:04:08;45;39;26
55549;PMS7003;41397;49.972;18.944;2024-02-26T00:07:09;45;39;25
55549;PMS7003;41397;49.972;18.944;2024-02-26T00:10:10;61;48;32
55549;PMS7003;41397;49.972;18.944;2024-02-26T00:13:11;43;38;26
55549;PMS7003;41397;49.972;18.944;2024-02-26T00:16:14;60;46;28
55549;PMS7003;41397;49.972;18.944;2024-02-26T00:19:16;61;50;34
55549;PMS7003;41397;49.972;18.944;2024-02-26T00:22:17;60;48;31
55549;PMS7003;41397;49.972;18.944;2024-02-26T00:25:18;62;52;33
55549;PMS7003;41397;49.972;18.944;2024-02-26T00:28:22;56;44;27
55549;PMS7003;41397;49.972;18.944;2024-02-26T00:31:25;52;44;30
55549;PMS7003;41397;49.972;18.944;2024-02-26T00:34:26;54;45;29
55549;PMS7003;41397;49.972;18.944;2024-02-26T00:37:27;60;47;30
55549;PMS7003;41397;49.972;18.944;2024-02-26T00:40:30;60;50;31
55549;PMS7003;41397;49.972;18.944;2024-02-26T00:43:31;51;42;27
55549;PMS7003;41397;49.972;18.944;2024-02-26T00:46:32;53;44;30
55549;PMS7003;41397;49.972;18.944;2024-02-26T00:49:33;42;31;11
55549;PMS7003;41397;49.972;18.944;2024-02-26T00:52:39;60;46;28
55549;PMS7003;41397;49.972;18.944;2024-02-26T00:55:40;60;49;31
55549;PMS7003;41397;49.972;18.944;2024-02-26T00:58:41;49;42;25
55549;PMS7003;41397;49.972;18.944;2024-02-26T01:01:42;53;45;28
55549;PMS7003;41397;49.972;18.944;2024-02-26T01:04:47;57;46;30
55549;PMS7003;41397;49.972;18.944;2024-02-26T01:07:49;54;45;30
55549;PMS7003;41397;49.972;18.944;2024-02-26T01:10:53;67;52;32
55549;PMS7003;41397;49.972;18.944;2024-02-26T01:13:54;58;39;25
55549;PMS7003;41397;49.972;18.944;2024-02-26T01:16:57;66;51;33
55549;PMS7003;41397;49.972;18.944;2024-02-26T01:19:58;64;53;33
55549;PMS7003;41397;49.972;18.944;2024-02-26T01:22:59;63;52;32
55549;PMS7003;41397;49.972;18.944;2024-02-26T01:26:00;62;53;34
55549;PMS7003;41397;49.972;18.944;2024-02-26T01:29:03;66;52;33
55549;PMS7003;41397;49.972;18.944;2024-02-26T01:32:05;62;53;30
55549;PMS7003;41397;49.972;18.944;2024-02-26T01:35:06;60;49;30
55549;PMS7003;41397;49.972;18.944;2024-02-26T01:38:12;63;52;34
55549;PMS7003;41397;49.972;18.944;2024-02-26T01:41:13;58;48;30
55549;PMS7003;41397;49.972;18.944;2024-02-26T01:44:15;66;58;35
55549;PMS7003;41397;49.972;18.944;2024-02-26T01:47:16;70;63;35
55549;PMS7003;41397;49.972;18.944;2024-02-26T01:50:18;64;55;34
55549;PMS7003;41397;49.972;18.944;2024-02-26T01:53:20;64;55;33
55549;PMS7003;41397;49.972;18.944;2024-02-26T01:56:22;62;52;32
55549;PMS7003;41397;49.972;18.944;2024-02-26T01:59:28;25;11;0
55549;PMS7003;41397;49.972;18.944;2024-02-26T02:02:29;63;56;38
55549;PMS7003;41397;49.972;18.944;2024-02-26T02:05:31;66;59;38
55549;PMS7003;41397;49.972;18.944;2024-02-26T02:08:33;61;52;33
55549;PMS7003;41397;49.972;18.944;2024-02-26T02:11:36;63;53;37
55549;PMS7003;41397;49.972;18.944;2024-02-26T02:14:37;71;58;33
55549;PMS7003;41397;49.972;18.944;2024-02-26T02:17:38;62;51;32
55549;PMS7003;41397;49.972;18.944;2024-02-26T02:20:39;67;60;37
55549;PMS7003;41397;49.972;18.944;2024-02-26T02:23:40;70;60;34
55549;PMS7003;41397;49.972;18.944;2024-02-26T02:26:47;62;53;34
55549;PMS7003;41397;49.972;18.944;2024-02-26T02:29:48;70;63;36
55549;PMS7003;41397;49.972;18.944;2024-02-26T02:32:49;68;62;38
55549;PMS7003;41397;49.972;18.944;2024-02-26T02:35:51;72;65;36
55549;PMS7003;41397;49.972;18.944;2024-02-26T02:38:55;76;64;42
55549;PMS7003;41397;49.972;18.944;2024-02-26T02:41:56;77;71;37
55549;PMS7003;41397;49.972;18.944;2024-02-26T02:44:58;65;59;37
55549;PMS7003;41397;49.972;18.944;2024-02-26T02:47:59;66;61;38
55549;PMS7003;41397;49.972;18.944;2024-02-26T02:51:00;71;63;38
55549;PMS7003;41397;49.972;18.944;2024-02-26T02:54:02;67;62;32
55549;PMS7003;41397;49.972;18.944;2024-02-26T02:57:03;69;63;40
55549;PMS7003;41397;49.972;18.944;2024-02-26T03:00:05;75;68;42
55549;PMS7003;41397;49.972;18.944;2024-02-26T03:03:10;94;72;42
55549;PMS7003;41397;49.972;18.944;2024-02-26T03:06:11;72;66;44
55549;PMS7003;41397;49.972;18.944;2024-02-26T03:09:13;81;75;45
55549;PMS7003;41397;49.972;18.944;2024-02-26T03:12:14;80;64;36
55549;PMS7003;41397;49.972;18.944;2024-02-26T03:15:15;69;65;40
55549;PMS7003;41397;49.972;18.944;2024-02-26T03:18:18;67;58;38
55549;PMS7003;41397;49.972;18.944;2024-02-26T03:21:19;66;59;33
55549;PMS7003;41397;49.972;18.944;2024-02-26T03:24:21;55;45;30
55549;PMS7003;41397;49.972;18.944;2024-02-26T03:27:22;47;40;26
55549;PMS7003;41397;49.972;18.944;2024-02-26T03:30:26;55;44;29
55549;PMS7003;41397;49.972;18.944;2024-02-26T03:33:28;61;51;32
55549;PMS7003;41397;49.972;18.944;2024-02-26T03:36:29;59;44;28
55549;PMS7003;41397;49.972;18.944;2024-02-26T03:39:30;65;52;33
55549;PMS7003;41397;49.972;18.944;2024-02-26T03:42:35;67;61;35
55549;PMS7003;41397;49.972;18.944;2024-02-26T03:45:37;66;60;39
55549;PMS7003;41397;49.972;18.944;2024-02-26T03:48:38;76;71;39
55549;PMS7003;41397;49.972;18.944;2024-02-26T03:51:40;63;57;37
55549;PMS7003;41397;49.972;18.944;2024-02-26T03:54:44;58;49;31
55549;PMS7003;41397;49.972;18.944;2024-02-26T03:57:45;64;53;34
55549;PMS7003;41397;49.972;18.944;2024-02-26T04:00:46;61;53;34
55549;PMS7003;41397;49.972;18.944;2024-02-26T04:03:48;62;54;31
55549;PMS7003;41397;49.972;18.944;2024-02-26T04:06:52;61;49;31
55549;PMS7003;41397;49.972;18.944;2024-02-26T04:09:53;62;52;34
55549;PMS7003;41397;49.972;18.944;2024-02-26T04:12:54;52;43;28
55549;PMS7003;41397;49.972;18.944;2024-02-26T04:15:55;47;39;28
55549;PMS7003;41397;49.972;18.944;2024-02-26T04:19:00;61;47;29
55549;PMS7003;41397;49.972;18.944;2024-02-26T04:22:01;55;45;25
55549;PMS7003;41397;49.972;18.944;2024-02-26T04:25:02;59;48;27
55549;PMS7003;41397;49.972;18.944;2024-02-26T04:28:04;54;45;26
55549;PMS7003;41397;49.972;18.944;2024-02-26T04:31:08;52;43;28
55549;PMS7003;41397;49.972;18.944;2024-02-26T04:34:09;53;44;28
55549;PMS7003;41397;49.972;18.944;2024-02-26T04:37:10;47;39;26
55549;PMS7003;41397;49.972;18.944;2024-02-26T04:40:11;49;39;26
55549;PMS7003;41397;49.972;18.944;2024-02-26T04:43:16;40;34;23
55549;PMS7003;41397;49.972;18.944;2024-02-26T04:46:20;55;44;27
55549;PMS7003;41397;49.972;18.944;2024-02-26T04:49:22;43;37;22
55549;PMS7003;41397;49.972;18.944;2024-02-26T04:52:23;51;43;27
55549;PMS7003;41397;49.972;18.944;2024-02-26T04:55:25;51;42;28
55549;PMS7003;41397;49.972;18.944;2024-02-26T04:58:26;53;42;29
55549;PMS7003;41397;49.972;18.944;2024-02-26T05:01:27;41;35;24
55549;PMS7003;41397;49.972;18.944;2024-02-26T05:04:28;50;40;27
55549;PMS7003;41397;49.972;18.944;2024-02-26T05:07:32;55;45;28
55549;PMS7003;41397;49.972;18.944;2024-02-26T05:10:33;47;39;26
55549;PMS7003;41397;49.972;18.944;2024-02-26T05:13:39;38;33;22
55549;PMS7003;41397;49.972;18.944;2024-02-26T05:16:41;45;37;23
55549;PMS7003;41397;49.972;18.944;2024-02-26T05:19:43;42;36;23
55549;PMS7003;41397;49.972;18.944;2024-02-26T05:22:44;43;37;24
55549;PMS7003;41397;49.972;18.944;2024-02-26T05:25:45;49;38;24
55549;PMS7003;41397;49.972;18.944;2024-02-26T05:28:48;42;36;25
55549;PMS7003;41397;49.972;18.944;2024-02-26T05:31:50;44;37;25
55549;PMS7003;41397;49.972;18.944;2024-02-26T05:34:51;40;34;23
55549;PMS7003;41397;49.972;18.944;2024-02-26T05:37:53;41;35;22
55549;PMS7003;41397;49.972;18.944;2024-02-26T05:40:54;48;40;24
55549;PMS7003;41397;49.972;18.944;2024-02-26T05:43:57;47;39;26
55549;PMS7003;41397;49.972;18.944;2024-02-26T05:46:59;50;41;27
55549;PMS7003;41397;49.972;18.944;2024-02-26T05:50:00;48;38;23
55549;PMS7003;41397;49.972;18.944;2024-02-26T05:53:05;48;41;26
55549;PMS7003;41397;49.972;18.944;2024-02-26T05:56:06;49;42;27
55549;PMS7003;41397;49.972;18.944;2024-02-26T05:59:07;53;43;29
55549;PMS7003;41397;49.972;18.944;2024-02-26T06:02:08;51;42;24
55549;PMS7003;41397;49.972;18.944;2024-02-26T06:05:09;49;40;26
55549;PMS7003;41397;49.972;18.944;2024-02-26T06:08:13;49;41;26
55549;PMS7003;41397;49.972;18.944;2024-02-26T06:11:14;51;41;27
55549;PMS7003;41397;49.972;18.944;2024-02-26T06:14:15;51;41;28
55549;PMS7003;41397;49.972;18.944;2024-02-26T06:17:19;50;41;28
55549;PMS7003;41397;49.972;18.944;2024-02-26T06:20:21;58;47;28
55549;PMS7003;41397;49.972;18.944;2024-02-26T06:23:22;48;40;24
55549;PMS7003;41397;49.972;18.944;2024-02-26T06:26:23;46;38;25
55549;PMS7003;41397;49.972;18.944;2024-02-26T06:29:29;58;47;31
55549;PMS7003;41397;49.972;18.944;2024-02-26T06:32:30;59;46;29
55549;PMS7003;41397;49.972;18.944;2024-02-26T06:35:31;50;42;27
55549;PMS7003;41397;49.972;18.944;2024-02-26T06:38:33;58;46;31
55549;PMS7003;41397;49.972;18.944;2024-02-26T06:41:34;63;56;32
55549;PMS7003;41397;49.972;18.944;2024-02-26T06:44:39;50;42;27
55549;PMS7003;41397;49.972;18.944;2024-02-26T06:47:40;57;44;26
55549;PMS7003;41397;49.972;18.944;2024-02-26T06:50:42;57;47;30
55549;PMS7003;41397;49.972;18.944;2024-02-26T06:53:43;59;47;29
55549;PMS7003;41397;49.972;18.944;2024-02-26T06:56:45;55;46;28
55549;PMS7003;41397;49.972;18.944;2024-02-26T06:59:46;58;46;28
55549;PMS7003;41397;49.972;18.944;2024-02-26T07:02:48;65;46;27
55549;PMS7003;41397;49.972;18.944;2024-02-26T07:05:49;57;46;29
55549;PMS7003;41397;49.972;18.944;2024-02-26T07:08:53;50;41;25
55549;PMS7003;41397;49.972;18.944;2024-02-26T07:11:55;49;41;25
55549;PMS7003;41397;49.972;18.944;2024-02-26T07:14:56;58;43;28
55549;PMS7003;41397;49.972;18.944;2024-02-26T07:17:57;43;36;24
55549;PMS7003;41397;49.972;18.944;2024-02-26T07:21:03;58;48;27
55549;PMS7003;41397;49.972;18.944;2024-02-26T07:24:05;46;39;24
55549;PMS7003;41397;49.972;18.944;2024-02-26T07:27:07;48;38;23
55549;PMS7003;41397;49.972;18.944;2024-02-26T07:30:08;47;39;26
55549;PMS7003;41397;49.972;18.944;2024-02-26T07:33:10;44;38;23
55549;PMS7003;41397;49.972;18.944;2024-02-26T07:36:11;50;40;25
55549;PMS7003;41397;49.972;18.944;2024-02-26T07:39:12;49;40;24
55549;PMS7003;41397;49.972;18.944;2024-02-26T07:42:13;41;35;24
55549;PMS7003;41397;49.972;18.944;2024-02-26T07:45:17;46;38;26
55549;PMS7003;41397;49.972;18.944;2024-02-26T07:48:21;49;40;27
55549;PMS7003;41397;49.972;18.944;2024-02-26T07:51:22;50;41;26
55549;PMS7003;41397;49.972;18.944;2024-02-26T07:54:24;50;42;28
55549;PMS7003;41397;49.972;18.944;2024-02-26T07:57:25;40;35;24
55549;PMS7003;41397;49.972;18.944;2024-02-26T08:00:26;44;38;24
55549;PMS7003;41397;49.972;18.944;2024-02-26T08:03:27;31;28;20
55549;PMS7003;41397;49.972;18.944;2024-02-26T08:06:29;31;29;19
55549;PMS7003;41397;49.972;18.944;2024-02-26T08:09:33;36;32;22
55549;PMS7003;41397;49.972;18.944;2024-02-26T08:12:34;36;32;22
55549;PMS7003;41397;49.972;18.944;2024-02-26T08:15:36;45;37;23
55549;PMS7003;41397;49.972;18.944;2024-02-26T08:18:40;34;31;22
55549;PMS7003;41397;49.972;18.944;2024-02-26T08:21:41;35;29;19
55549;PMS7003;41397;49.972;18.944;2024-02-26T08:24:43;35;31;22
55549;PMS7003;41397;49.972;18.944;2024-02-26T08:27:44;31;28;19
55549;PMS7003;41397;49.972;18.944;2024-02-26T08:30:45;32;29;20
55549;PMS7003;41397;49.972;18.944;2024-02-26T08:33:49;40;34;22
55549;PMS7003;41397;49.972;18.944;2024-02-26T08:36:50;38;31;18
55549;PMS7003;41397;49.972;18.944;2024-02-26T08:39:52;36;31;20
55549;PMS7003;41397;49.972;18.944;2024-02-26T08:42:53;36;32;21
55549;PMS7003;41397;49.972;18.944;2024-02-26T08:45:57;36;31;22
55549;PMS7003;41397;49.972;18.944;2024-02-26T08:48:58;40;35;20
55549;PMS7003;41397;49.972;18.944;2024-02-26T08:52:00;34;31;20
55549;PMS7003;41397;49.972;18.944;2024-02-26T08:55:01;41;35;22
55549;PMS7003;41397;49.972;18.944;2024-02-26T08:58:05;27;26;18
55549;PMS7003;41397;49.972;18.944;2024-02-26T09:01:06;28;27;20
55549;PMS7003;41397;49.972;18.944;2024-02-26T09:04:07;33;30;18
55549;PMS7003;41397;49.972;18.944;2024-02-26T09:07:09;35;31;18
55549;PMS7003;41397;49.972;18.944;2024-02-26T09:10:13;27;25;17
55549;PMS7003;41397;49.972;18.944;2024-02-26T09:13:15;29;28;18
55549;PMS7003;41397;49.972;18.944;2024-02-26T09:16:16;22;22;16
55549;PMS7003;41397;49.972;18.944;2024-02-26T09:19:17;31;29;20
55549;PMS7003;41397;49.972;18.944;2024-02-26T09:22:23;25;24;16
55549;PMS7003;41397;49.972;18.944;2024-02-26T09:25:24;20;20;14
55549;PMS7003;41397;49.972;18.944;2024-02-26T09:28:26;27;26;17
55549;PMS7003;41397;49.972;18.944;2024-02-26T09:31:27;17;17;14
55549;PMS7003;41397;49.972;18.944;2024-02-26T09:34:31;27;27;16
55549;PMS7003;41397;49.972;18.944;2024-02-26T09:37:34;23;22;16
55549;PMS7003;41397;49.972;18.944;2024-02-26T09:40:37;26;26;19
55549;PMS7003;41397;49.972;18.944;2024-02-26T09:43:40;30;26;18
55549;PMS7003;41397;49.972;18.944;2024-02-26T09:46:49;12;12;10
55549;PMS7003;41397;49.972;18.944;2024-02-26T09:49:58;22;22;17
55549;PMS7003;41397;49.972;18.944;2024-02-26T09:53:03;14;14;10
55549;PMS7003;41397;49.972;18.944;2024-02-26T09:56:07;17;17;10
55549;PMS7003;41397;49.972;18.944;2024-02-26T09:59:13;14;14;9
55549;PMS7003;41397;49.972;18.944;2024-02-26T10:02:16;18;18;13
55549;PMS7003;41397;49.972;18.944;2024-02-26T10:05:24;14;14;9
55549;PMS7003;41397;49.972;18.944;2024-02-26T10:08:26;10;10;10
55549;PMS7003;41397;49.972;18.944;2024-02-26T10:11:28;13;13;10
55549;PMS7003;41397;49.972;18.944;2024-02-26T10:14:30;10;10;5
55549;PMS7003;41397;49.972;18.944;2024-02-26T10:17:32;10;10;8
55549;PMS7003;41397;49.972;18.944;2024-02-26T10:20:35;5;5;5
55549;PMS7003;41397;49.972;18.944;2024-02-26T10:23:36;11;11;7
55549;PMS7003;41397;49.972;18.944;2024-02-26T10:26:37;11;9;8
55549;PMS7003;41397;49.972;18.944;2024-02-26T10:29:44;9;9;8
55549;PMS7003;41397;49.972;18.944;2024-02-26T10:32:48;5;5;2
55549;PMS7003;41397;49.972;18.944;2024-02-26T10:35:50;9;9;6
55549;PMS7003;41397;49.972;18.944;2024-02-26T10:38:51;8;8;5
55549;PMS7003;41397;49.972;18.944;2024-02-26T10:41:53;11;11;7
55549;PMS7003;41397;49.972;18.944;2024-02-26T10:44:54;11;11;9
55549;PMS7003;41397;49.972;18.944;2024-02-26T10:47:55;7;7;5
55549;PMS7003;41397;49.972;18.944;2024-02-26T10:50:56;9;9;8
55549;PMS7003;41397;49.972;18.944;2024-02-26T10:53:59;12;11;11
55549;PMS7003;41397;49.972;18.944;2024-02-26T10:57:07;12;12;11
55549;PMS7003;41397;49.972;18.944;2024-02-26T11:00:10;9;9;8
55549;PMS7003;41397;49.972;18.944;2024-02-26T11:03:14;7;7;7
55549;PMS7003;41397;49.972;18.944;2024-02-26T11:06:23;10;10;7
55549;PMS7003;41397;49.972;18.944;2024-02-26T11:09:27;10;10;9
55549;PMS7003;41397;49.972;18.944;2024-02-26T11:12:29;11;11;10
55549;PMS7003;41397;49.972;18.944;2024-02-26T11:15:31;8;8;6
55549;PMS7003;41397;49.972;18.944;2024-02-26T11:18:34;12;12;9
55549;PMS7003;41397;49.972;18.944;2024-02-26T11:21:37;9;9;8
55549;PMS7003;41397;49.972;18.944;2024-02-26T11:24:43;12;12;9
55549;PMS7003;41397;49.972;18.944;2024-02-26T11:27:50;14;14;8
55549;PMS7003;41397;49.972;18.944;2024-02-26T11:30:54;14;14;9
55549;PMS7003;41397;49.972;18.944;2024-02-26T11:33:59;11;11;9
55549;PMS7003;41397;49.972;18.944;2024-02-26T11:40:11;7;7;5
55549;PMS7003;41397;49.972;18.944;2024-02-26T11:43:13;13;13;9
55549;PMS7003;41397;49.972;18.944;2024-02-26T11:49:31;9;9;8
55549;PMS7003;41397;49.972;18.944;2024-02-26T11:52:32;6;6;2
55549;PMS7003;41397;49.972;18.944;2024-02-26T11:55:34;6;6;5
55549;PMS7003;41397;49.972;18.944;2024-02-26T11:58:35;9;9;6
55549;PMS7003;41397;49.972;18.944;2024-02-26T12:01:39;5;5;4
55549;PMS7003;41397;49.972;18.944;2024-02-26T12:04:41;10;10;8
55549;PMS7003;41397;49.972;18.944;2024-02-26T12:07:46;9;9;7
55549;PMS7003;41397;49.972;18.944;2024-02-26T12:10:52;10;10;9
55549;PMS7003;41397;49.972;18.944;2024-02-26T12:13:56;12;12;9
55549;PMS7003;41397;49.972;18.944;2024-02-26T12:16:57;11;11;9
55549;PMS7003;41397;49.972;18.944;2024-02-26T12:23:14;11;11;10
55549;PMS7003;41397;49.972;18.944;2024-02-26T12:26:17;15;15;11
55549;PMS7003;41397;49.972;18.944;2024-02-26T12:29:18;15;15;12
55549;PMS7003;41397;49.972;18.944;2024-02-26T12:32:24;9;9;7
55549;PMS7003;41397;49.972;18.944;2024-02-26T12:35:27;9;9;8
55549;PMS7003;41397;49.972;18.944;2024-02-26T12:38:29;10;10;10
55549;PMS7003;41397;49.972;18.944;2024-02-26T12:41:31;10;10;7
55549;PMS7003;41397;49.972;18.944;2024-02-26T12:45:10;11;11;8
55549;PMS7003;41397;49.972;18.944;2024-02-26T12:48:13;11;11;9
55549;PMS7003;41397;49.972;18.944;2024-02-26T12:51:15;11;11;10
55549;PMS7003;41397;49.972;18.944;2024-02-26T12:54:18;11;11;10
55549;PMS7003;41397;49.972;18.944;2024-02-26T12:57:19;12;10;7
55549;PMS7003;41397;49.972;18.944;2024-02-26T13:00:25;10;10;9
55549;PMS7003;41397;49.972;18.944;2024-02-26T13:03:28;11;11;7
55549;PMS7003;41397;49.972;18.944;2024-02-26T13:06:31;12;12;10
55549;PMS7003;41397;49.972;18.944;2024-02-26T13:09:32;14;14;9
55549;PMS7003;41397;49.972;18.944;2024-02-26T13:12:47;12;12;9
55549;PMS7003;41397;49.972;18.944;2024-02-26T13:15:45;12;12;10
55549;PMS7003;41397;49.972;18.944;2024-02-26T13:18:46;16;16;13
55549;PMS7003;41397;49.972;18.944;2024-02-26T13:21:51;22;22;14
55549;PMS7003;41397;49.972;18.944;2024-02-26T13:24:53;19;19;11
55549;PMS7003;41397;49.972;18.944;2024-02-26T13:31:09;22;22;14
55549;PMS7003;41397;49.972;18.944;2024-02-26T13:34:11;15;15;12
55549;PMS7003;41397;49.972;18.944;2024-02-26T13:37:12;17;17;12
55549;PMS7003;41397;49.972;18.944;2024-02-26T13:40:13;16;16;13
55549;PMS7003;41397;49.972;18.944;2024-02-26T13:43:14;19;19;15
55549;PMS7003;41397;49.972;18.944;2024-02-26T13:46:15;21;21;12
55549;PMS7003;41397;49.972;18.944;2024-02-26T13:49:17;18;17;11
55549;PMS7003;41397;49.972;18.944;2024-02-26T13:52:18;18;18;13
55549;PMS7003;41397;49.972;18.944;2024-02-26T13:55:21;16;16;12
55549;PMS7003;41397;49.972;18.944;2024-02-26T13:58:26;23;23;11
55549;PMS7003;41397;49.972;18.944;2024-02-26T14:01:28;2;2;0
55549;PMS7003;41397;49.972;18.944;2024-02-26T14:04:29;18;18;11
55549;PMS7003;41397;49.972;18.944;2024-02-26T14:07:30;23;21;14
55549;PMS7003;41397;49.972;18.944;2024-02-26T14:10:34;21;18;14
55549;PMS7003;41397;49.972;18.944;2024-02-26T14:13:36;30;29;17
55549;PMS7003;41397;49.972;18.944;2024-02-26T14:16:37;23;23;17
55549;PMS7003;41397;49.972;18.944;2024-02-26T14:19:38;22;22;15
55549;PMS7003;41397;49.972;18.944;2024-02-26T14:22:44;24;24;17
55549;PMS7003;41397;49.972;18.944;2024-02-26T14:25:45;22;22;14
55549;PMS7003;41397;49.972;18.944;2024-02-26T14:28:46;23;22;16
55549;PMS7003;41397;49.972;18.944;2024-02-26T14:31:47;27;27;19
55549;PMS7003;41397;49.972;18.944;2024-02-26T14:34:49;22;22;15
55549;PMS7003;41397;49.972;18.944;2024-02-26T14:37:50;26;26;14
55549;PMS7003;41397;49.972;18.944;2024-02-26T14:40:52;32;30;20
55549;PMS7003;41397;49.972;18.944;2024-02-26T14:43:53;37;27;17
55549;PMS7003;41397;49.972;18.944;2024-02-26T14:46:54;37;32;21
55549;PMS7003;41397;49.972;18.944;2024-02-26T14:49:55;36;29;19
55549;PMS7003;41397;49.972;18.944;2024-02-26T14:52:56;34;27;17
55549;PMS7003;41397;49.972;18.944;2024-02-26T14:56:01;33;29;19
55549;PMS7003;41397;49.972;18.944;2024-02-26T14:59:02;23;23;16
55549;PMS7003;41397;49.972;18.944;2024-02-26T15:02:03;21;21;18
55549;PMS7003;41397;49.972;18.944;2024-02-26T15:05:05;22;22;14
55549;PMS7003;41397;49.972;18.944;2024-02-26T15:08:09;32;30;19
55549;PMS7003;41397;49.972;18.944;2024-02-26T15:11:15;28;26;16
55549;PMS7003;41397;49.972;18.944;2024-02-26T15:14:16;27;26;16
55549;PMS7003;41397;49.972;18.944;2024-02-26T15:17:18;25;25;17
55549;PMS7003;41397;49.972;18.944;2024-02-26T15:20:21;39;34;20
55549;PMS7003;41397;49.972;18.944;2024-02-26T15:23:22;34;28;21
55549;PMS7003;41397;49.972;18.944;2024-02-26T15:26:24;36;28;18
55549;PMS7003;41397;49.972;18.944;2024-02-26T15:29:26;28;26;19
55549;PMS7003;41397;49.972;18.944;2024-02-26T15:32:28;23;22;17
55549;PMS7003;41397;49.972;18.944;2024-02-26T15:35:29;16;16;9
55549;PMS7003;41397;49.972;18.944;2024-02-26T15:38:31;10;10;7
55549;PMS7003;41397;49.972;18.944;2024-02-26T15:41:32;13;12;10
55549;PMS7003;41397;49.972;18.944;2024-02-26T15:44:33;8;8;6
55549;PMS7003;41397;49.972;18.944;2024-02-26T15:47:34;8;8;6
55549;PMS7003;41397;49.972;18.944;2024-02-26T15:50:36;9;9;6
55549;PMS7003;41397;49.972;18.944;2024-02-26T15:53:41;16;10;7
55549;PMS7003;41397;49.972;18.944;2024-02-26T15:56:42;6;6;5
55549;PMS7003;41397;49.972;18.944;2024-02-26T15:59:44;5;5;4
55549;PMS7003;41397;49.972;18.944;2024-02-26T16:02:46;6;6;6
55549;PMS7003;41397;49.972;18.944;2024-02-26T16:05:50;7;7;7
55549;PMS7003;41397;49.972;18.944;2024-02-26T16:08:51;3;3;2
55549;PMS7003;41397;49.972;18.944;2024-02-26T16:11:53;7;6;3
55549;PMS7003;41397;49.972;18.944;2024-02-26T16:14:56;8;8;7
55549;PMS7003;41397;49.972;18.944;2024-02-26T16:17:59;8;8;6
55549;PMS7003;41397;49.972;18.944;2024-02-26T16:21:01;7;7;6
55549;PMS7003;41397;49.972;18.944;2024-02-26T16:24:03;11;11;9
55549;PMS7003;41397;49.972;18.944;2024-02-26T16:27:05;7;7;5
55549;PMS7003;41397;49.972;18.944;2024-02-26T16:30:07;7;7;5
55549;PMS7003;41397;49.972;18.944;2024-02-26T16:33:10;9;9;5
55549;PMS7003;41397;49.972;18.944;2024-02-26T16:36:12;10;10;9
55549;PMS7003;41397;49.972;18.944;2024-02-26T16:39:13;9;9;7
55549;PMS7003;41397;49.972;18.944;2024-02-26T16:42:20;10;10;7
55549;PMS7003;41397;49.972;18.944;2024-02-26T16:45:22;8;8;7
55549;PMS7003;41397;49.972;18.944;2024-02-26T16:48:25;9;9;7
55549;PMS7003;41397;49.972;18.944;2024-02-26T16:51:26;9;9;7
55549;PMS7003;41397;49.972;18.944;2024-02-26T16:54:27;9;9;8
55549;PMS7003;41397;49.972;18.944;2024-02-26T16:57:29;8;8;7
55549;PMS7003;41397;49.972;18.944;2024-02-26T17:00:30;8;7;3
55549;PMS7003;41397;49.972;18.944;2024-02-26T17:03:32;7;7;2
55549;PMS7003;41397;49.972;18.944;2024-02-26T17:06:34;15;15;7
55549;PMS7003;41397;49.972;18.944;2024-02-26T17:09:35;12;12;9
55549;PMS7003;41397;49.972;18.944;2024-02-26T17:12:43;14;14;11
55549;PMS7003;41397;49.972;18.944;2024-02-26T17:15:50;19;17;13
55549;PMS7003;41397;49.972;18.944;2024-02-26T17:18:52;11;11;8
55549;PMS7003;41397;49.972;18.944;2024-02-26T17:21:53;16;16;11
55549;PMS7003;41397;49.972;18.944;2024-02-26T17:24:54;21;21;12
55549;PMS7003;41397;49.972;18.944;2024-02-26T17:27:58;9;9;8
55549;PMS7003;41397;49.972;18.944;2024-02-26T17:30:59;14;14;10
55549;PMS7003;41397;49.972;18.944;2024-02-26T17:34:03;19;19;13
55549;PMS7003;41397;49.972;18.944;2024-02-26T17:37:04;24;23;15
55549;PMS7003;41397;49.972;18.944;2024-02-26T17:40:06;15;15;9
55549;PMS7003;41397;49.972;18.944;2024-02-26T17:43:08;16;16;13
55549;PMS7003;41397;49.972;18.944;2024-02-26T17:46:09;17;17;12
55549;PMS7003;41397;49.972;18.944;2024-02-26T17:49:11;24;23;15
55549;PMS7003;41397;49.972;18.944;2024-02-26T17:52:15;23;23;15
55549;PMS7003;41397;49.972;18.944;2024-02-26T17:55:16;36;31;19
55549;PMS7003;41397;49.972;18.944;2024-02-26T17:58:21;35;31;20
55549;PMS7003;41397;49.972;18.944;2024-02-26T18:01:22;34;31;21
55549;PMS7003;41397;49.972;18.944;2024-02-26T18:04:24;35;31;19
55549;PMS7003;41397;49.972;18.944;2024-02-26T18:07:25;30;27;16
55549;PMS7003;41397;49.972;18.944;2024-02-26T18:10:26;28;27;18
55549;PMS7003;41397;49.972;18.944;2024-02-26T18:13:28;38;33;21
55549;PMS7003;41397;49.972;18.944;2024-02-26T18:16:31;43;37;25
55549;PMS7003;41397;49.972;18.944;2024-02-26T18:19:32;49;40;24
55549;PMS7003;41397;49.972;18.944;2024-02-26T18:22:34;40;35;24
55549;PMS7003;41397;49.972;18.944;2024-02-26T18:25:37;44;38;25
55549;PMS7003;41397;49.972;18.944;2024-02-26T18:28:38;35;32;17
55549;PMS7003;41397;49.972;18.944;2024-02-26T18:31:39;52;41;25
55549;PMS7003;41397;49.972;18.944;2024-02-26T18:34:43;48;39;25
55549;PMS7003;41397;49.972;18.944;2024-02-26T18:37:45;51;40;26
55549;PMS7003;41397;49.972;18.944;2024-02-26T18:40:50;41;35;22
55549;PMS7003;41397;49.972;18.944;2024-02-26T18:43:52;35;31;23
55549;PMS7003;41397;49.972;18.944;2024-02-26T18:46:54;53;41;27
55549;PMS7003;41397;49.972;18.944;2024-02-26T18:50:05;50;39;24
55549;PMS7003;41397;49.972;18.944;2024-02-26T18:53:03;49;41;22
55549;PMS7003;41397;49.972;18.944;2024-02-26T18:56:12;49;40;26
55549;PMS7003;41397;49.972;18.944;2024-02-26T18:59:15;49;40;27
55549;PMS7003;41397;49.972;18.944;2024-02-26T19:02:17;52;43;27
55549;PMS7003;41397;49.972;18.944;2024-02-26T19:05:18;50;39;26
55549;PMS7003;41397;49.972;18.944;2024-02-26T19:08:26;55;44;29
55549;PMS7003;41397;49.972;18.944;2024-02-26T19:11:30;52;43;28
55549;PMS7003;41397;49.972;18.944;2024-02-26T19:14:34;61;53;29
55549;PMS7003;41397;49.972;18.944;2024-02-26T19:17:35;56;45;28
55549;PMS7003;41397;49.972;18.944;2024-02-26T19:20:36;50;42;26
55549;PMS7003;41397;49.972;18.944;2024-02-26T19:23:37;60;50;29
55549;PMS7003;41397;49.972;18.944;2024-02-26T19:26:39;47;40;27
55549;PMS7003;41397;49.972;18.944;2024-02-26T19:29:41;49;41;27
55549;PMS7003;41397;49.972;18.944;2024-02-26T19:32:42;50;41;24